sensor_id;sensor_type;location;lat;lon;timestamp;P1;durP1;ratioP1;P2;durP2;ratioP2
34204;SDS011;20471;49.680;20.074;2023-08-24T00:00:52;30.10;;;23.70;;
34204;SDS011;20471;49.680;20.074;2023-08-24T00:03:33;25.80;;;23.00;;
34204;SDS011;20471;49.680;20.074;2023-08-24T00:06:01;28.10;;;23.20;;
34204;SDS011;20471;49.680;20.074;2023-08-24T00:08:29;27.50;;;24.40;;
34204;SDS011;20471;49.680;20.074;2023-08-24T00:10:57;27.30;;;24.20;;
34204;SDS011;20471;49.680;20.074;2023-08-24T00:13:24;26.20;;;23.20;;
34204;SDS011;20471;49.680;20.074;2023-08-24T00:15:53;27.50;;;24.40;;
34204;SDS011;20471;49.680;20.074;2023-08-24T00:18:21;28.30;;;24.50;;
34204;SDS011;20471;49.680;20.074;2023-08-24T00:20:49;29.80;;;23.70;;
34204;SDS011;20471;49.680;20.074;2023-08-24T00:23:17;26.10;;;23.50;;
34204;SDS011;20471;49.680;20.074;2023-08-24T00:25:45;30.50;;;24.20;;
34204;SDS011;20471;49.680;20.074;2023-08-24T00:28:13;27.80;;;24.80;;
34204;SDS011;20471;49.680;20.074;2023-08-24T00:30:40;30.30;;;24.60;;
34204;SDS011;20471;49.680;20.074;2023-08-24T00:33:08;27.70;;;24.80;;
34204;SDS011;20471;49.680;20.074;2023-08-24T00:35:36;27.70;;;24.60;;
34204;SDS011;20471;49.680;20.074;2023-08-24T00:38:03;34.20;;;27.30;;
34204;SDS011;20471;49.680;20.074;2023-08-24T00:40:31;36.90;;;28.10;;
34204;SDS011;20471;49.680;20.074;2023-08-24T00:43:00;34.50;;;29.00;;
34204;SDS011;20471;49.680;20.074;2023-08-24T00:45:28;38.70;;;32.70;;
34204;SDS011;20471;49.680;20.074;2023-08-24T00:47:59;39.20;;;34.30;;
34204;SDS011;20471;49.680;20.074;2023-08-24T00:50:27;42.70;;;31.60;;
34204;SDS011;20471;49.680;20.074;2023-08-24T00:52:54;38.00;;;32.10;;
34204;SDS011;20471;49.680;20.074;2023-08-24T00:55:22;40.90;;;33.90;;
34204;SDS011;20471;49.680;20.074;2023-08-24T00:57:50;41.50;;;32.10;;
34204;SDS011;20471;49.680;20.074;2023-08-24T01:00:18;42.10;;;33.80;;
34204;SDS011;20471;49.680;20.074;2023-08-24T01:02:47;41.40;;;32.60;;
34204;SDS011;20471;49.680;20.074;2023-08-24T01:05:14;41.30;;;32.60;;
34204;SDS011;20471;49.680;20.074;2023-08-24T01:07:42;42.00;;;32.60;;
34204;SDS011;20471;49.680;20.074;2023-08-24T01:10:10;44.30;;;34.00;;
34204;SDS011;20471;49.680;20.074;2023-08-24T01:12:54;41.70;;;34.40;;
34204;SDS011;20471;49.680;20.074;2023-08-24T01:15:54;39.40;;;32.90;;
34204;SDS011;20471;49.680;20.074;2023-08-24T01:18:28;40.20;;;32.60;;
34204;SDS011;20471;49.680;20.074;2023-08-24T01:20:57;42.80;;;34.70;;
34204;SDS011;20471;49.680;20.074;2023-08-24T01:23:34;50.20;;;35.40;;
34204;SDS011;20471;49.680;20.074;2023-08-24T01:26:18;42.60;;;35.00;;
34204;SDS011;20471;49.680;20.074;2023-08-24T01:28:47;43.30;;;35.20;;
34204;SDS011;20471;49.680;20.074;2023-08-24T01:31:15;49.70;;;37.70;;
34204;SDS011;20471;49.680;20.074;2023-08-24T01:33:45;44.90;;;36.10;;
34204;SDS011;20471;49.680;20.074;2023-08-24T01:36:13;44.00;;;36.50;;
34204;SDS011;20471;49.680;20.074;2023-08-24T01:38:44;46.10;;;36.50;;
34204;SDS011;20471;49.680;20.074;2023-08-24T01:41:28;44.60;;;34.00;;
34204;SDS011;20471;49.680;20.074;2023-08-24T01:43:59;46.10;;;35.10;;
34204;SDS011;20471;49.680;20.074;2023-08-24T01:46:30;41.20;;;34.90;;
34204;SDS011;20471;49.680;20.074;2023-08-24T01:48:59;43.30;;;34.80;;
34204;SDS011;20471;49.680;20.074;2023-08-24T01:51:28;39.10;;;33.60;;
34204;SDS011;20471;49.680;20.074;2023-08-24T01:53:57;40.60;;;32.70;;
34204;SDS011;20471;49.680;20.074;2023-08-24T01:56:24;37.40;;;32.70;;
34204;SDS011;20471;49.680;20.074;2023-08-24T01:58:52;39.40;;;32.60;;
34204;SDS011;20471;49.680;20.074;2023-08-24T02:01:20;39.70;;;33.50;;
34204;SDS011;20471;49.680;20.074;2023-08-24T02:03:47;38.90;;;33.40;;
34204;SDS011;20471;49.680;20.074;2023-08-24T02:06:15;42.10;;;31.30;;
34204;SDS011;20471;49.680;20.074;2023-08-24T02:08:43;41.20;;;32.50;;
34204;SDS011;20471;49.680;20.074;2023-08-24T02:11:11;40.70;;;33.00;;
34204;SDS011;20471;49.680;20.074;2023-08-24T02:13:38;43.00;;;33.50;;
34204;SDS011;20471;49.680;20.074;2023-08-24T02:16:07;45.30;;;33.30;;
34204;SDS011;20471;49.680;20.074;2023-08-24T02:18:36;47.80;;;34.80;;
34204;SDS011;20471;49.680;20.074;2023-08-24T02:21:07;42.20;;;34.30;;
34204;SDS011;20471;49.680;20.074;2023-08-24T02:23:38;43.30;;;33.80;;
34204;SDS011;20471;49.680;20.074;2023-08-24T02:26:07;42.80;;;34.30;;
34204;SDS011;20471;49.680;20.074;2023-08-24T02:28:36;43.20;;;34.50;;
34204;SDS011;20471;49.680;20.074;2023-08-24T02:31:04;41.50;;;32.10;;
34204;SDS011;20471;49.680;20.074;2023-08-24T02:33:32;41.50;;;33.40;;
34204;SDS011;20471;49.680;20.074;2023-08-24T02:36:00;42.20;;;33.20;;
34204;SDS011;20471;49.680;20.074;2023-08-24T02:38:28;37.80;;;31.10;;
34204;SDS011;20471;49.680;20.074;2023-08-24T02:43:30;37.30;;;30.30;;
34204;SDS011;20471;49.680;20.074;2023-08-24T02:45:59;35.10;;;30.70;;
34204;SDS011;20471;49.680;20.074;2023-08-24T02:48:31;38.20;;;29.60;;
34204;SDS011;20471;49.680;20.074;2023-08-24T02:51:00;38.60;;;29.60;;
34204;SDS011;20471;49.680;20.074;2023-08-24T02:53:29;34.10;;;29.70;;
34204;SDS011;20471;49.680;20.074;2023-08-24T02:55:57;33.50;;;28.90;;
34204;SDS011;20471;49.680;20.074;2023-08-24T02:58:24;34.20;;;30.10;;
34204;SDS011;20471;49.680;20.074;2023-08-24T03:00:53;35.40;;;28.20;;
34204;SDS011;20471;49.680;20.074;2023-08-24T03:03:20;33.10;;;27.80;;
34204;SDS011;20471;49.680;20.074;2023-08-24T03:05:55;31.30;;;27.40;;
34204;SDS011;20471;49.680;20.074;2023-08-24T03:08:27;34.30;;;27.80;;
34204;SDS011;20471;49.680;20.074;2023-08-24T03:10:56;31.90;;;28.50;;
34204;SDS011;20471;49.680;20.074;2023-08-24T03:13:25;33.90;;;29.10;;
34204;SDS011;20471;49.680;20.074;2023-08-24T03:15:53;30.20;;;26.20;;
34204;SDS011;20471;49.680;20.074;2023-08-24T03:18:21;29.00;;;24.80;;
34204;SDS011;20471;49.680;20.074;2023-08-24T03:20:49;25.70;;;22.90;;
34204;SDS011;20471;49.680;20.074;2023-08-24T03:23:17;26.40;;;22.90;;
34204;SDS011;20471;49.680;20.074;2023-08-24T03:25:45;26.80;;;24.00;;
34204;SDS011;20471;49.680;20.074;2023-08-24T03:28:12;27.10;;;24.30;;
34204;SDS011;20471;49.680;20.074;2023-08-24T03:30:45;29.20;;;26.00;;
34204;SDS011;20471;49.680;20.074;2023-08-24T03:33:14;29.90;;;25.70;;
34204;SDS011;20471;49.680;20.074;2023-08-24T03:35:42;28.20;;;25.30;;
34204;SDS011;20471;49.680;20.074;2023-08-24T03:38:10;27.20;;;24.00;;
34204;SDS011;20471;49.680;20.074;2023-08-24T03:40:38;28.90;;;25.80;;
34204;SDS011;20471;49.680;20.074;2023-08-24T03:43:06;28.30;;;25.30;;
34204;SDS011;20471;49.680;20.074;2023-08-24T03:45:33;27.20;;;24.60;;
34204;SDS011;20471;49.680;20.074;2023-08-24T03:48:01;28.60;;;24.40;;
34204;SDS011;20471;49.680;20.074;2023-08-24T03:50:29;26.80;;;24.00;;
34204;SDS011;20471;49.680;20.074;2023-08-24T03:52:57;27.30;;;24.50;;
34204;SDS011;20471;49.680;20.074;2023-08-24T03:55:24;27.50;;;24.70;;
34204;SDS011;20471;49.680;20.074;2023-08-24T03:57:52;27.10;;;24.40;;
34204;SDS011;20471;49.680;20.074;2023-08-24T04:00:20;27.50;;;24.60;;
34204;SDS011;20471;49.680;20.074;2023-08-24T04:02:48;28.70;;;25.70;;
34204;SDS011;20471;49.680;20.074;2023-08-24T04:05:16;27.20;;;24.40;;
34204;SDS011;20471;49.680;20.074;2023-08-24T04:07:43;26.10;;;23.50;;
34204;SDS011;20471;49.680;20.074;2023-08-24T04:10:11;26.50;;;21.80;;
34204;SDS011;20471;49.680;20.074;2023-08-24T04:12:39;25.20;;;22.80;;
34204;SDS011;20471;49.680;20.074;2023-08-24T04:15:07;23.40;;;21.00;;
34204;SDS011;20471;49.680;20.074;2023-08-24T04:17:34;23.70;;;21.40;;
34204;SDS011;20471;49.680;20.074;2023-08-24T04:20:02;24.60;;;22.00;;
34204;SDS011;20471;49.680;20.074;2023-08-24T04:22:34;24.50;;;22.10;;
34204;SDS011;20471;49.680;20.074;2023-08-24T04:25:01;25.30;;;22.80;;
34204;SDS011;20471;49.680;20.074;2023-08-24T04:27:29;26.30;;;23.60;;
34204;SDS011;20471;49.680;20.074;2023-08-24T04:29:57;26.50;;;23.70;;
34204;SDS011;20471;49.680;20.074;2023-08-24T04:32:24;26.40;;;23.60;;
34204;SDS011;20471;49.680;20.074;2023-08-24T04:34:52;25.70;;;23.20;;
34204;SDS011;20471;49.680;20.074;2023-08-24T04:37:20;29.20;;;24.10;;
34204;SDS011;20471;49.680;20.074;2023-08-24T04:39:48;28.70;;;24.70;;
34204;SDS011;20471;49.680;20.074;2023-08-24T04:42:15;29.90;;;24.80;;
34204;SDS011;20471;49.680;20.074;2023-08-24T04:44:43;29.00;;;23.50;;
34204;SDS011;20471;49.680;20.074;2023-08-24T04:47:10;29.80;;;25.80;;
34204;SDS011;20471;49.680;20.074;2023-08-24T04:49:38;33.00;;;28.20;;
34204;SDS011;20471;49.680;20.074;2023-08-24T04:52:06;35.00;;;27.60;;
34204;SDS011;20471;49.680;20.074;2023-08-24T04:54:34;30.90;;;27.30;;
34204;SDS011;20471;49.680;20.074;2023-08-24T04:57:01;34.40;;;26.80;;
34204;SDS011;20471;49.680;20.074;2023-08-24T04:59:29;30.70;;;25.90;;
34204;SDS011;20471;49.680;20.074;2023-08-24T05:01:57;31.20;;;26.00;;
34204;SDS011;20471;49.680;20.074;2023-08-24T05:04:25;26.80;;;23.20;;
34204;SDS011;20471;49.680;20.074;2023-08-24T05:06:52;26.00;;;20.90;;
34204;SDS011;20471;49.680;20.074;2023-08-24T05:09:20;22.00;;;19.30;;
34204;SDS011;20471;49.680;20.074;2023-08-24T05:11:48;19.90;;;17.80;;
34204;SDS011;20471;49.680;20.074;2023-08-24T05:14:16;20.30;;;18.30;;
34204;SDS011;20471;49.680;20.074;2023-08-24T05:16:44;20.80;;;18.70;;
34204;SDS011;20471;49.680;20.074;2023-08-24T05:19:12;19.80;;;17.80;;
34204;SDS011;20471;49.680;20.074;2023-08-24T05:21:39;20.20;;;18.10;;
34204;SDS011;20471;49.680;20.074;2023-08-24T05:24:07;20.30;;;18.30;;
34204;SDS011;20471;49.680;20.074;2023-08-24T05:26:35;25.00;;;19.90;;
34204;SDS011;20471;49.680;20.074;2023-08-24T05:29:02;20.40;;;18.40;;
34204;SDS011;20471;49.680;20.074;2023-08-24T05:31:30;20.80;;;18.60;;
34204;SDS011;20471;49.680;20.074;2023-08-24T05:33:57;20.90;;;18.30;;
34204;SDS011;20471;49.680;20.074;2023-08-24T05:36:25;20.90;;;18.80;;
34204;SDS011;20471;49.680;20.074;2023-08-24T05:38:53;22.40;;;20.10;;
34204;SDS011;20471;49.680;20.074;2023-08-24T05:41:22;24.80;;;21.00;;
34204;SDS011;20471;49.680;20.074;2023-08-24T05:43:50;22.30;;;20.10;;
34204;SDS011;20471;49.680;20.074;2023-08-24T05:46:18;26.90;;;22.50;;
34204;SDS011;20471;49.680;20.074;2023-08-24T05:48:46;23.60;;;21.10;;
34204;SDS011;20471;49.680;20.074;2023-08-24T05:51:14;25.40;;;22.30;;
34204;SDS011;20471;49.680;20.074;2023-08-24T05:53:42;25.60;;;23.00;;
34204;SDS011;20471;49.680;20.074;2023-08-24T05:56:10;25.00;;;22.00;;
34204;SDS011;20471;49.680;20.074;2023-08-24T05:58:38;26.80;;;22.10;;
34204;SDS011;20471;49.680;20.074;2023-08-24T06:01:05;25.90;;;22.10;;
34204;SDS011;20471;49.680;20.074;2023-08-24T06:03:34;23.20;;;20.60;;
34204;SDS011;20471;49.680;20.074;2023-08-24T06:06:02;22.90;;;20.50;;
34204;SDS011;20471;49.680;20.074;2023-08-24T06:08:31;25.40;;;21.20;;
34204;SDS011;20471;49.680;20.074;2023-08-24T06:10:59;26.30;;;22.00;;
34204;SDS011;20471;49.680;20.074;2023-08-24T06:13:26;24.40;;;21.70;;
34204;SDS011;20471;49.680;20.074;2023-08-24T06:15:54;25.00;;;22.10;;
34204;SDS011;20471;49.680;20.074;2023-08-24T06:18:22;21.70;;;19.50;;
34204;SDS011;20471;49.680;20.074;2023-08-24T06:20:49;26.90;;;22.30;;
34204;SDS011;20471;49.680;20.074;2023-08-24T06:23:18;24.90;;;21.90;;
34204;SDS011;20471;49.680;20.074;2023-08-24T06:25:45;25.00;;;22.30;;
34204;SDS011;20471;49.680;20.074;2023-08-24T06:28:13;23.50;;;21.10;;
34204;SDS011;20471;49.680;20.074;2023-08-24T06:30:41;24.50;;;21.40;;
34204;SDS011;20471;49.680;20.074;2023-08-24T06:33:09;27.30;;;22.30;;
34204;SDS011;20471;49.680;20.074;2023-08-24T06:35:37;28.80;;;23.00;;
34204;SDS011;20471;49.680;20.074;2023-08-24T06:38:05;25.40;;;22.60;;
34204;SDS011;20471;49.680;20.074;2023-08-24T06:40:33;24.60;;;22.10;;
34204;SDS011;20471;49.680;20.074;2023-08-24T06:43:00;27.70;;;23.30;;
34204;SDS011;20471;49.680;20.074;2023-08-24T06:45:28;26.40;;;23.10;;
34204;SDS011;20471;49.680;20.074;2023-08-24T06:47:56;25.50;;;21.80;;
34204;SDS011;20471;49.680;20.074;2023-08-24T06:50:23;24.60;;;22.10;;
34204;SDS011;20471;49.680;20.074;2023-08-24T06:52:51;23.90;;;21.50;;
34204;SDS011;20471;49.680;20.074;2023-08-24T06:55:19;24.90;;;22.30;;
34204;SDS011;20471;49.680;20.074;2023-08-24T06:57:47;30.00;;;23.70;;
34204;SDS011;20471;49.680;20.074;2023-08-24T07:00:15;25.90;;;21.70;;
34204;SDS011;20471;49.680;20.074;2023-08-24T07:02:44;24.90;;;21.80;;
34204;SDS011;20471;49.680;20.074;2023-08-24T07:05:11;24.60;;;22.00;;
34204;SDS011;20471;49.680;20.074;2023-08-24T07:07:40;23.90;;;21.20;;
34204;SDS011;20471;49.680;20.074;2023-08-24T07:10:09;23.10;;;20.80;;
34204;SDS011;20471;49.680;20.074;2023-08-24T07:12:37;23.60;;;21.20;;
34204;SDS011;20471;49.680;20.074;2023-08-24T07:15:07;25.10;;;20.40;;
34204;SDS011;20471;49.680;20.074;2023-08-24T07:17:35;24.30;;;21.50;;
34204;SDS011;20471;49.680;20.074;2023-08-24T07:20:04;24.20;;;21.40;;
34204;SDS011;20471;49.680;20.074;2023-08-24T07:22:32;25.90;;;20.20;;
34204;SDS011;20471;49.680;20.074;2023-08-24T07:25:00;21.10;;;18.90;;
34204;SDS011;20471;49.680;20.074;2023-08-24T07:27:34;23.50;;;19.30;;
34204;SDS011;20471;49.680;20.074;2023-08-24T07:30:02;22.50;;;19.30;;
34204;SDS011;20471;49.680;20.074;2023-08-24T07:32:32;22.70;;;19.60;;
34204;SDS011;20471;49.680;20.074;2023-08-24T07:35:00;20.60;;;18.40;;
34204;SDS011;20471;49.680;20.074;2023-08-24T07:37:27;24.50;;;18.90;;
34204;SDS011;20471;49.680;20.074;2023-08-24T07:39:55;20.50;;;18.40;;
34204;SDS011;20471;49.680;20.074;2023-08-24T07:42:23;19.40;;;17.30;;
34204;SDS011;20471;49.680;20.074;2023-08-24T07:44:50;19.20;;;16.60;;
34204;SDS011;20471;49.680;20.074;2023-08-24T07:47:18;19.00;;;17.00;;
34204;SDS011;20471;49.680;20.074;2023-08-24T07:49:46;18.80;;;17.00;;
34204;SDS011;20471;49.680;20.074;2023-08-24T07:52:14;18.50;;;16.00;;
34204;SDS011;20471;49.680;20.074;2023-08-24T07:54:42;17.30;;;15.00;;
34204;SDS011;20471;49.680;20.074;2023-08-24T07:57:10;16.50;;;14.70;;
34204;SDS011;20471;49.680;20.074;2023-08-24T07:59:38;15.90;;;13.60;;
34204;SDS011;20471;49.680;20.074;2023-08-24T08:02:06;18.80;;;13.40;;
34204;SDS011;20471;49.680;20.074;2023-08-24T08:04:33;13.90;;;12.20;;
34204;SDS011;20471;49.680;20.074;2023-08-24T08:07:01;13.90;;;12.10;;
34204;SDS011;20471;49.680;20.074;2023-08-24T08:09:29;13.30;;;11.10;;
34204;SDS011;20471;49.680;20.074;2023-08-24T08:11:56;10.60;;;9.50;;
34204;SDS011;20471;49.680;20.074;2023-08-24T08:14:25;11.20;;;9.80;;
34204;SDS011;20471;49.680;20.074;2023-08-24T08:16:53;10.60;;;8.90;;
34204;SDS011;20471;49.680;20.074;2023-08-24T08:19:21;10.20;;;8.90;;
34204;SDS011;20471;49.680;20.074;2023-08-24T08:21:51;11.20;;;9.60;;
34204;SDS011;20471;49.680;20.074;2023-08-24T08:24:19;14.20;;;8.70;;
34204;SDS011;20471;49.680;20.074;2023-08-24T08:26:46;9.50;;;8.50;;
34204;SDS011;20471;49.680;20.074;2023-08-24T08:29:14;9.60;;;7.60;;
34204;SDS011;20471;49.680;20.074;2023-08-24T08:31:42;8.10;;;7.30;;
34204;SDS011;20471;49.680;20.074;2023-08-24T08:34:10;9.30;;;7.20;;
34204;SDS011;20471;49.680;20.074;2023-08-24T08:36:37;7.00;;;6.20;;
34204;SDS011;20471;49.680;20.074;2023-08-24T08:39:05;8.70;;;5.50;;
34204;SDS011;20471;49.680;20.074;2023-08-24T08:41:38;7.40;;;6.10;;
34204;SDS011;20471;49.680;20.074;2023-08-24T08:44:13;8.10;;;7.00;;
34204;SDS011;20471;49.680;20.074;2023-08-24T08:46:42;9.00;;;5.50;;
34204;SDS011;20471;49.680;20.074;2023-08-24T08:49:11;6.30;;;5.70;;
34204;SDS011;20471;49.680;20.074;2023-08-24T08:51:42;7.70;;;5.20;;
34204;SDS011;20471;49.680;20.074;2023-08-24T08:54:09;7.10;;;6.20;;
34204;SDS011;20471;49.680;20.074;2023-08-24T08:56:38;7.30;;;5.80;;
34204;SDS011;20471;49.680;20.074;2023-08-24T08:59:07;8.70;;;5.70;;
34204;SDS011;20471;49.680;20.074;2023-08-24T09:01:37;7.80;;;4.80;;
34204;SDS011;20471;49.680;20.074;2023-08-24T09:04:05;8.00;;;4.50;;
34204;SDS011;20471;49.680;20.074;2023-08-24T09:06:33;5.20;;;4.40;;
34204;SDS011;20471;49.680;20.074;2023-08-24T09:09:02;6.80;;;4.20;;
34204;SDS011;20471;49.680;20.074;2023-08-24T09:11:30;5.90;;;4.10;;
34204;SDS011;20471;49.680;20.074;2023-08-24T09:13:57;5.60;;;2.90;;
34204;SDS011;20471;49.680;20.074;2023-08-24T09:16:28;5.10;;;2.80;;
34204;SDS011;20471;49.680;20.074;2023-08-24T09:18:57;3.80;;;2.70;;
34204;SDS011;20471;49.680;20.074;2023-08-24T09:21:24;3.20;;;2.80;;
34204;SDS011;20471;49.680;20.074;2023-08-24T09:23:53;6.60;;;3.20;;
34204;SDS011;20471;49.680;20.074;2023-08-24T09:26:31;3.90;;;3.00;;
34204;SDS011;20471;49.680;20.074;2023-08-24T09:29:05;5.60;;;3.40;;
34204;SDS011;20471;49.680;20.074;2023-08-24T09:31:38;5.20;;;3.00;;
34204;SDS011;20471;49.680;20.074;2023-08-24T09:34:07;5.50;;;3.00;;
34204;SDS011;20471;49.680;20.074;2023-08-24T09:36:35;2.90;;;2.70;;
34204;SDS011;20471;49.680;20.074;2023-08-24T09:39:04;3.00;;;2.20;;
34204;SDS011;20471;49.680;20.074;2023-08-24T09:44:08;5.00;;;2.20;;
34204;SDS011;20471;49.680;20.074;2023-08-24T09:46:37;3.50;;;2.20;;
34204;SDS011;20471;49.680;20.074;2023-08-24T09:49:06;4.60;;;2.90;;
34204;SDS011;20471;49.680;20.074;2023-08-24T09:51:35;3.30;;;2.70;;
34204;SDS011;20471;49.680;20.074;2023-08-24T09:54:04;5.20;;;2.50;;
34204;SDS011;20471;49.680;20.074;2023-08-24T09:56:40;3.60;;;3.00;;
34204;SDS011;20471;49.680;20.074;2023-08-24T09:59:15;3.90;;;2.70;;
34204;SDS011;20471;49.680;20.074;2023-08-24T10:01:46;5.20;;;3.30;;
34204;SDS011;20471;49.680;20.074;2023-08-24T10:04:16;2.90;;;2.60;;
34204;SDS011;20471;49.680;20.074;2023-08-24T10:06:52;3.90;;;2.70;;
34204;SDS011;20471;49.680;20.074;2023-08-24T10:09:31;4.40;;;3.60;;
34204;SDS011;20471;49.680;20.074;2023-08-24T10:12:03;3.60;;;2.90;;
34204;SDS011;20471;49.680;20.074;2023-08-24T10:17:11;4.10;;;3.40;;
34204;SDS011;20471;49.680;20.074;2023-08-24T10:19:39;4.70;;;4.00;;
34204;SDS011;20471;49.680;20.074;2023-08-24T10:22:08;5.00;;;4.10;;
34204;SDS011;20471;49.680;20.074;2023-08-24T10:24:37;3.90;;;3.30;;
34204;SDS011;20471;49.680;20.074;2023-08-24T10:27:05;4.90;;;4.10;;
34204;SDS011;20471;49.680;20.074;2023-08-24T10:29:36;5.00;;;3.90;;
34204;SDS011;20471;49.680;20.074;2023-08-24T10:32:04;5.60;;;4.60;;
34204;SDS011;20471;49.680;20.074;2023-08-24T10:34:32;5.30;;;4.00;;
34204;SDS011;20471;49.680;20.074;2023-08-24T10:37:09;4.10;;;3.60;;
34204;SDS011;20471;49.680;20.074;2023-08-24T10:39:43;5.40;;;3.80;;
34204;SDS011;20471;49.680;20.074;2023-08-24T10:42:12;13.10;;;3.90;;
34204;SDS011;20471;49.680;20.074;2023-08-24T10:44:44;4.50;;;3.70;;
34204;SDS011;20471;49.680;20.074;2023-08-24T10:49:42;5.10;;;3.10;;
34204;SDS011;20471;49.680;20.074;2023-08-24T10:52:44;4.90;;;3.30;;
34204;SDS011;20471;49.680;20.074;2023-08-24T10:55:23;3.60;;;3.00;;
34204;SDS011;20471;49.680;20.074;2023-08-24T10:57:59;4.90;;;3.00;;
34204;SDS011;20471;49.680;20.074;2023-08-24T11:00:28;4.90;;;3.30;;
34204;SDS011;20471;49.680;20.074;2023-08-24T11:02:57;6.40;;;3.20;;
34204;SDS011;20471;49.680;20.074;2023-08-24T11:05:29;4.50;;;3.10;;
34204;SDS011;20471;49.680;20.074;2023-08-24T11:08:01;3.30;;;2.60;;
34204;SDS011;20471;49.680;20.074;2023-08-24T11:13:04;4.30;;;3.40;;
34204;SDS011;20471;49.680;20.074;2023-08-24T11:18:13;3.20;;;2.90;;
34204;SDS011;20471;49.680;20.074;2023-08-24T11:20:45;3.80;;;2.60;;
34204;SDS011;20471;49.680;20.074;2023-08-24T11:23:17;3.80;;;2.90;;
34204;SDS011;20471;49.680;20.074;2023-08-24T11:25:46;4.50;;;3.10;;
34204;SDS011;20471;49.680;20.074;2023-08-24T11:28:17;6.00;;;3.00;;
34204;SDS011;20471;49.680;20.074;2023-08-24T11:30:46;3.20;;;2.60;;
34204;SDS011;20471;49.680;20.074;2023-08-24T11:33:14;6.00;;;2.90;;
34204;SDS011;20471;49.680;20.074;2023-08-24T11:35:44;4.40;;;2.80;;
34204;SDS011;20471;49.680;20.074;2023-08-24T11:38:12;3.70;;;3.20;;
34204;SDS011;20471;49.680;20.074;2023-08-24T11:40:40;4.10;;;2.90;;
34204;SDS011;20471;49.680;20.074;2023-08-24T11:43:08;7.30;;;3.00;;
34204;SDS011;20471;49.680;20.074;2023-08-24T11:45:36;4.80;;;3.10;;
34204;SDS011;20471;49.680;20.074;2023-08-24T11:48:07;5.00;;;3.00;;
34204;SDS011;20471;49.680;20.074;2023-08-24T11:50:37;4.60;;;3.10;;
34204;SDS011;20471;49.680;20.074;2023-08-24T11:53:06;3.70;;;3.00;;
34204;SDS011;20471;49.680;20.074;2023-08-24T11:55:39;4.80;;;3.20;;
34204;SDS011;20471;49.680;20.074;2023-08-24T11:58:12;4.60;;;3.10;;
34204;SDS011;20471;49.680;20.074;2023-08-24T12:00:42;3.20;;;2.70;;
34204;SDS011;20471;49.680;20.074;2023-08-24T12:03:10;5.20;;;2.90;;
34204;SDS011;20471;49.680;20.074;2023-08-24T12:05:39;4.30;;;3.20;;
34204;SDS011;20471;49.680;20.074;2023-08-24T12:08:07;4.10;;;2.90;;
34204;SDS011;20471;49.680;20.074;2023-08-24T12:10:44;3.00;;;2.80;;
34204;SDS011;20471;49.680;20.074;2023-08-24T12:13:12;3.70;;;2.80;;
34204;SDS011;20471;49.680;20.074;2023-08-24T12:15:40;5.20;;;3.20;;
34204;SDS011;20471;49.680;20.074;2023-08-24T12:18:12;3.90;;;3.00;;
34204;SDS011;20471;49.680;20.074;2023-08-24T12:20:41;4.00;;;3.10;;
34204;SDS011;20471;49.680;20.074;2023-08-24T12:23:10;6.00;;;3.00;;
34204;SDS011;20471;49.680;20.074;2023-08-24T12:25:39;6.60;;;3.50;;
34204;SDS011;20471;49.680;20.074;2023-08-24T12:28:13;4.20;;;3.20;;
34204;SDS011;20471;49.680;20.074;2023-08-24T12:30:46;3.80;;;2.90;;
34204;SDS011;20471;49.680;20.074;2023-08-24T12:33:26;5.60;;;3.10;;
34204;SDS011;20471;49.680;20.074;2023-08-24T12:35:55;3.30;;;2.80;;
34204;SDS011;20471;49.680;20.074;2023-08-24T12:38:25;4.40;;;3.20;;
34204;SDS011;20471;49.680;20.074;2023-08-24T12:40:54;4.30;;;3.00;;
34204;SDS011;20471;49.680;20.074;2023-08-24T12:43:21;3.80;;;3.20;;
34204;SDS011;20471;49.680;20.074;2023-08-24T12:45:49;6.00;;;3.30;;
34204;SDS011;20471;49.680;20.074;2023-08-24T12:48:17;4.70;;;3.20;;
34204;SDS011;20471;49.680;20.074;2023-08-24T12:50:44;3.70;;;3.00;;
34204;SDS011;20471;49.680;20.074;2023-08-24T12:53:12;4.00;;;3.30;;
34204;SDS011;20471;49.680;20.074;2023-08-24T12:55:40;4.90;;;3.40;;
34204;SDS011;20471;49.680;20.074;2023-08-24T12:58:07;5.00;;;3.40;;
34204;SDS011;20471;49.680;20.074;2023-08-24T13:00:35;3.60;;;3.00;;
34204;SDS011;20471;49.680;20.074;2023-08-24T13:03:03;7.50;;;3.10;;
34204;SDS011;20471;49.680;20.074;2023-08-24T13:05:31;4.40;;;3.20;;
34204;SDS011;20471;49.680;20.074;2023-08-24T13:07:58;3.80;;;2.80;;
34204;SDS011;20471;49.680;20.074;2023-08-24T13:10:26;3.70;;;3.00;;
34204;SDS011;20471;49.680;20.074;2023-08-24T13:12:54;4.40;;;3.10;;
34204;SDS011;20471;49.680;20.074;2023-08-24T13:15:22;7.70;;;3.30;;
34204;SDS011;20471;49.680;20.074;2023-08-24T13:17:50;4.80;;;3.30;;
34204;SDS011;20471;49.680;20.074;2023-08-24T13:20:18;4.30;;;3.00;;
34204;SDS011;20471;49.680;20.074;2023-08-24T13:22:45;3.30;;;3.00;;
34204;SDS011;20471;49.680;20.074;2023-08-24T13:25:13;3.70;;;3.30;;
34204;SDS011;20471;49.680;20.074;2023-08-24T13:27:41;7.50;;;3.20;;
34204;SDS011;20471;49.680;20.074;2023-08-24T13:30:08;3.60;;;3.30;;
34204;SDS011;20471;49.680;20.074;2023-08-24T13:32:36;5.70;;;3.50;;
34204;SDS011;20471;49.680;20.074;2023-08-24T13:35:05;4.40;;;3.10;;
34204;SDS011;20471;49.680;20.074;2023-08-24T13:37:34;4.80;;;3.60;;
34204;SDS011;20471;49.680;20.074;2023-08-24T13:40:02;4.90;;;3.40;;
34204;SDS011;20471;49.680;20.074;2023-08-24T13:42:31;4.00;;;2.90;;
34204;SDS011;20471;49.680;20.074;2023-08-24T13:44:58;4.30;;;3.20;;
34204;SDS011;20471;49.680;20.074;2023-08-24T13:47:26;3.80;;;3.00;;
34204;SDS011;20471;49.680;20.074;2023-08-24T13:49:54;4.80;;;2.90;;
34204;SDS011;20471;49.680;20.074;2023-08-24T13:52:21;3.90;;;2.80;;
34204;SDS011;20471;49.680;20.074;2023-08-24T13:54:49;5.70;;;3.30;;
34204;SDS011;20471;49.680;20.074;2023-08-24T13:57:17;5.80;;;3.10;;
34204;SDS011;20471;49.680;20.074;2023-08-24T13:59:45;4.20;;;3.30;;
34204;SDS011;20471;49.680;20.074;2023-08-24T14:02:12;3.80;;;3.00;;
34204;SDS011;20471;49.680;20.074;2023-08-24T14:04:40;5.10;;;3.40;;
34204;SDS011;20471;49.680;20.074;2023-08-24T14:07:08;5.30;;;3.10;;
34204;SDS011;20471;49.680;20.074;2023-08-24T14:09:36;3.90;;;3.00;;
34204;SDS011;20471;49.680;20.074;2023-08-24T14:12:03;3.40;;;2.90;;
34204;SDS011;20471;49.680;20.074;2023-08-24T14:14:31;4.50;;;3.20;;
34204;SDS011;20471;49.680;20.074;2023-08-24T14:16:59;3.80;;;3.20;;
34204;SDS011;20471;49.680;20.074;2023-08-24T14:19:27;3.60;;;2.90;;
34204;SDS011;20471;49.680;20.074;2023-08-24T14:21:54;4.50;;;3.00;;
34204;SDS011;20471;49.680;20.074;2023-08-24T14:24:24;3.60;;;2.90;;
34204;SDS011;20471;49.680;20.074;2023-08-24T14:26:52;4.50;;;3.50;;
34204;SDS011;20471;49.680;20.074;2023-08-24T14:29:19;3.60;;;3.10;;
34204;SDS011;20471;49.680;20.074;2023-08-24T14:31:47;5.00;;;3.10;;
34204;SDS011;20471;49.680;20.074;2023-08-24T14:34:14;5.80;;;3.20;;
34204;SDS011;20471;49.680;20.074;2023-08-24T14:36:42;7.80;;;3.60;;
34204;SDS011;20471;49.680;20.074;2023-08-24T14:39:10;4.00;;;3.10;;
34204;SDS011;20471;49.680;20.074;2023-08-24T14:41:38;3.70;;;2.90;;
34204;SDS011;20471;49.680;20.074;2023-08-24T14:44:05;5.10;;;3.10;;